Time,TemperatureF,DewpointF,PressureIn,WindDirection,WindDirectionDegrees,WindSpeedMPH,WindSpeedGustMPH,Humidity,HourlyPrecipIn,Conditions,Clouds,dailyrainin,SoftwareType,DateUTC
2013-01-24 00:02:00,55.0,33.0,-100.00,SW,223,1.0,3.0,44,-99.99,,,-99.99,,2013-01-24 08:02:00,
2013-01-24 00:12:00,55.0,34.0,-100.00,SSE,165,3.0,6.0,45,-99.99,,,-99.99,,2013-01-24 08:12:00,
2013-01-24 00:22:00,55.0,35.0,-100.00,SSE,154,3.0,5.0,46,-99.99,,,-99.99,,2013-01-24 08:22:00,
2013-01-24 00:32:00,55.0,35.0,-100.00,SE,143,2.0,4.0,47,-99.99,,,-99.99,,2013-01-24 08:32:00,
2013-01-24 00:42:00,54.0,36.0,-100.00,SW,222,2.0,3.0,50,-99.99,,,-99.99,,2013-01-24 08:42:00,
2013-01-24 00:52:00,53.0,36.0,-100.00,West,272,2.0,4.0,53,-99.99,,,-99.99,,2013-01-24 08:52:00,
2013-01-24 01:02:00,53.0,35.0,-100.00,WNW,293,2.0,5.0,50,-99.99,,,-99.99,,2013-01-24 09:02:00,
2013-01-24 01:12:00,53.0,33.0,-100.00,WNW,291,3.0,6.0,46,-99.99,,,-99.99,,2013-01-24 09:12:00,
2013-01-24 01:22:00,53.0,32.0,-100.00,WNW,303,3.0,6.0,45,-99.99,,,-99.99,,2013-01-24 09:22:00,
2013-01-24 01:32:00,53.0,32.0,-100.00,WNW,303,4.0,8.0,45,-99.99,,,-99.99,,2013-01-24 09:32:00,
2013-01-24 01:42:00,53.0,32.0,-100.00,WNW,301,5.0,7.0,44,-99.99,,,-99.99,,2013-01-24 09:42:00,
2013-01-24 01:52:00,53.0,32.0,-100.00,WNW,301,5.0,7.0,44,-99.99,,,-99.99,,2013-01-24 09:52:00,
2013-01-24 02:02:00,52.0,31.0,-100.00,WNW,292,3.0,5.0,45,-99.99,,,-99.99,,2013-01-24 10:02:00,
2013-01-24 02:12:00,52.0,31.0,-100.00,WNW,303,3.0,7.0,44,-99.99,,,-99.99,,2013-01-24 10:12:00,
2013-01-24 02:22:00,52.0,31.0,-100.00,NW,316,3.0,6.0,44,-99.99,,,-99.99,,2013-01-24 10:22:00,
2013-01-24 02:32:00,53.0,32.0,-100.00,NE,52,2.0,6.0,44,-99.99,,,-99.99,,2013-01-24 10:32:00,
2013-01-24 02:42:00,53.0,31.0,-100.00,SE,125,3.0,6.0,43,-99.99,,,-99.99,,2013-01-24 10:42:00,
2013-01-24 02:52:00,54.0,31.0,-100.00,South,176,3.0,8.0,42,-99.99,,,-99.99,,2013-01-24 10:52:00,
2013-01-24 03:02:00,53.0,31.0,-100.00,SSE,150,3.0,5.0,43,-99.99,,,-99.99,,2013-01-24 11:02:00,
2013-01-24 03:12:00,53.0,33.0,-100.00,SSW,205,1.0,4.0,46,-99.99,,,-99.99,,2013-01-24 11:12:00,
2013-01-24 03:22:00,53.0,34.0,-100.00,SSW,206,2.0,8.0,49,-99.99,,,-99.99,,2013-01-24 11:22:00,
2013-01-24 03:32:00,52.0,34.0,-100.00,SW,216,2.0,7.0,51,-99.99,,,-99.99,,2013-01-24 11:32:00,
2013-01-24 03:42:00,52.0,36.0,-100.00,SE,141,5.0,12.0,54,-99.99,,,-99.99,,2013-01-24 11:42:00,
2013-01-24 03:52:00,53.0,38.0,-100.00,South,173,5.0,12.0,56,-99.99,,,-99.99,,2013-01-24 11:52:00,
2013-01-24 04:03:00,52.0,36.0,-100.00,ESE,105,7.0,9.0,55,-99.99,,,-99.99,,2013-01-24 12:03:00,
2013-01-24 04:12:00,51.0,36.0,-100.00,ESE,110,7.0,12.0,56,-99.99,,,-99.99,,2013-01-24 12:12:00,
2013-01-24 04:22:00,50.0,37.0,-100.00,ESE,111,8.0,11.0,60,-99.99,,,-99.99,,2013-01-24 12:22:00,
2013-01-24 04:32:00,50.0,36.0,-100.00,SE,125,8.0,11.0,59,-99.99,,,-99.99,,2013-01-24 12:32:00,
2013-01-24 04:42:00,51.0,38.0,-100.00,SE,137,4.0,8.0,60,-99.99,,,-99.99,,2013-01-24 12:42:00,
2013-01-24 04:52:00,51.0,38.0,-100.00,SSE,151,2.0,4.0,62,-99.99,,,-99.99,,2013-01-24 12:52:00,
2013-01-24 05:02:00,49.0,40.0,-100.00,SW,236,2.0,4.0,70,-99.99,,,-99.99,,2013-01-24 13:02:00,
2013-01-24 05:12:00,49.0,40.0,-100.00,SW,230,1.0,3.0,72,-99.99,,,-99.99,,2013-01-24 13:12:00,
2013-01-24 05:22:00,49.0,40.0,-100.00,SW,228,2.0,4.0,71,-99.99,,,-99.99,,2013-01-24 13:22:00,
2013-01-24 05:32:00,49.0,40.0,-100.00,WSW,237,1.0,2.0,71,-99.99,,,-99.99,,2013-01-24 13:32:00,
2013-01-24 05:42:00,49.0,40.0,-100.00,WSW,237,1.0,2.0,71,-99.99,,,-99.99,,2013-01-24 13:42:00,
2013-01-24 05:52:00,51.0,39.0,-100.00,South,189,1.0,4.0,63,-99.99,,,-99.99,,2013-01-24 13:52:00,
2013-01-24 06:02:00,50.0,39.0,-100.00,South,174,1.0,2.0,66,-99.99,,,-99.99,,2013-01-24 14:02:00,
2013-01-24 06:12:00,49.0,40.0,-100.00,WSW,241,1.0,2.0,72,-99.99,,,-99.99,,2013-01-24 14:12:00,
2013-01-24 06:22:00,48.0,42.0,-100.00,West,272,1.0,1.0,80,-99.99,,,-99.99,,2013-01-24 14:22:00,
2013-01-24 06:32:00,47.0,42.0,-100.00,SE,124,1.0,2.0,82,-99.99,,,-99.99,,2013-01-24 14:32:00,
2013-01-24 06:43:00,47.0,43.0,-100.00,ESE,116,1.0,2.0,85,-99.99,,,-99.99,,2013-01-24 14:43:00,
2013-01-24 06:53:00,47.0,44.0,-100.00,NNW,345,1.0,2.0,89,-99.99,,,-99.99,,2013-01-24 14:53:00,
2013-01-24 07:02:00,46.0,43.0,-100.00,SSE,157,1.0,1.0,90,-99.99,,,-99.99,,2013-01-24 15:02:00,
2013-01-24 07:12:00,46.0,43.0,-100.00,ESE,108,1.0,2.0,89,-99.99,,,-99.99,,2013-01-24 15:12:00,
2013-01-24 07:22:00,46.0,43.0,-100.00,ENE,77,1.0,2.0,90,-99.99,,,-99.99,,2013-01-24 15:22:00,
2013-01-24 07:32:00,47.0,43.0,-100.00,SE,131,3.0,5.0,85,-99.99,,,-99.99,,2013-01-24 15:32:00,
2013-01-24 07:42:00,47.0,43.0,-100.00,SE,131,3.0,5.0,85,-99.99,,,-99.99,,2013-01-24 15:42:00,
2013-01-24 07:52:00,48.0,43.0,-100.00,SE,136,2.0,5.0,83,-99.99,,,-99.99,,2013-01-24 15:52:00,
2013-01-24 08:02:00,48.0,43.0,-100.00,ESE,107,2.0,4.0,82,-99.99,,,-99.99,,2013-01-24 16:02:00,
2013-01-24 08:12:00,49.0,43.0,-100.00,North,359,1.0,4.0,81,-99.99,,,-99.99,,2013-01-24 16:12:00,
2013-01-24 08:22:00,49.0,44.0,-100.00,SE,146,1.0,4.0,82,-99.99,,,-99.99,,2013-01-24 16:22:00,
2013-01-24 08:33:00,49.0,44.0,-100.00,South,180,3.0,8.0,82,-99.99,,,-99.99,,2013-01-24 16:33:00,
2013-01-24 08:42:00,49.0,45.0,-100.00,SSE,160,2.0,5.0,85,-99.99,,,-99.99,,2013-01-24 16:42:00,
2013-01-24 09:01:00,49.0,45.0,-100.00,ESE,108,1.0,2.0,87,-99.99,,,-99.99,,2013-01-24 17:01:00,
2013-01-24 09:11:00,49.0,45.0,-100.00,SE,133,1.0,2.0,87,-99.99,,,-99.99,,2013-01-24 17:11:00,
2013-01-24 09:21:00,49.0,45.0,-100.00,SE,133,1.0,2.0,87,-99.99,,,-99.99,,2013-01-24 17:21:00,
2013-01-24 09:31:00,49.0,45.0,-100.00,ENE,75,1.0,1.0,86,-99.99,,,-99.99,,2013-01-24 17:31:00,
2013-01-24 09:42:00,49.0,45.0,-100.00,NE,52,1.0,1.0,86,-99.99,,,-99.99,,2013-01-24 17:42:00,
2013-01-24 09:52:00,49.0,45.0,-100.00,NE,43,1.0,1.0,86,-99.99,,,-99.99,,2013-01-24 17:52:00,
2013-01-24 10:01:00,49.0,45.0,-100.00,East,91,1.0,1.0,87,-99.99,,,-99.99,,2013-01-24 18:01:00,
2013-01-24 10:11:00,49.0,46.0,-100.00,NE,34,1.0,2.0,89,-99.99,,,-99.99,,2013-01-24 18:11:00,
2013-01-24 10:22:00,49.0,46.0,-100.00,NNE,23,1.0,2.0,91,-99.99,,,-99.99,,2013-01-24 18:22:00,
2013-01-24 10:32:00,49.0,47.0,-100.00,NE,54,3.0,5.0,92,-99.99,,,-99.99,,2013-01-24 18:32:00,
2013-01-24 10:42:00,49.0,46.0,-100.00,ENE,71,4.0,6.0,91,-99.99,,,-99.99,,2013-01-24 18:42:00,
2013-01-24 10:52:00,49.0,47.0,-100.00,East,80,4.0,6.0,92,-99.99,,,-99.99,,2013-01-24 18:52:00,
2013-01-24 11:01:00,49.0,47.0,-100.00,East,88,4.0,6.0,92,-99.99,,,-99.99,,2013-01-24 19:01:00,
2013-01-24 11:12:00,49.0,47.0,-100.00,East,80,4.0,7.0,93,-99.99,,,-99.99,,2013-01-24 19:12:00,
2013-01-24 11:21:00,49.0,47.0,-100.00,East,81,5.0,8.0,94,-99.99,,,-99.99,,2013-01-24 19:21:00,
2013-01-24 11:32:00,49.0,48.0,-100.00,East,79,4.0,6.0,95,-99.99,,,-99.99,,2013-01-24 19:32:00,
2013-01-24 11:42:00,49.0,47.0,-100.00,East,100,4.0,6.0,94,-99.99,,,-99.99,,2013-01-24 19:42:00,
2013-01-24 11:51:00,49.0,47.0,-100.00,East,84,5.0,7.0,93,-99.99,,,-99.99,,2013-01-24 19:51:00,
2013-01-24 12:01:00,49.0,47.0,-100.00,East,84,5.0,7.0,93,-99.99,,,-99.99,,2013-01-24 20:01:00,
2013-01-24 12:11:00,49.0,48.0,-100.00,NE,56,2.0,4.0,96,-99.99,,,-99.99,,2013-01-24 20:11:00,
2013-01-24 12:22:00,49.0,48.0,-100.00,ENE,58,2.0,4.0,96,-99.99,,,-99.99,,2013-01-24 20:22:00,
2013-01-24 12:32:00,49.0,48.0,-100.00,ENE,75,3.0,6.0,96,-99.99,,,-99.99,,2013-01-24 20:32:00,
2013-01-24 12:42:00,49.0,48.0,-100.00,ENE,75,3.0,6.0,96,-99.99,,,-99.99,,2013-01-24 20:42:00,
2013-01-24 12:52:00,49.0,48.0,-100.00,ENE,63,3.0,6.0,96,-99.99,,,-99.99,,2013-01-24 20:52:00,
2013-01-24 13:02:00,51.0,50.0,-100.00,East,87,3.0,5.0,96,-99.99,,,-99.99,,2013-01-24 21:02:00,
2013-01-24 13:11:00,51.0,50.0,-100.00,East,87,3.0,5.0,96,-99.99,,,-99.99,,2013-01-24 21:11:00,
2013-01-24 13:22:00,52.0,51.0,-100.00,East,87,4.0,7.0,95,-99.99,,,-99.99,,2013-01-24 21:22:00,
2013-01-24 13:32:00,51.0,49.0,-100.00,East,89,4.0,8.0,93,-99.99,,,-99.99,,2013-01-24 21:32:00,
2013-01-24 13:42:00,52.0,50.0,-100.00,ENE,70,3.0,5.0,93,-99.99,,,-99.99,,2013-01-24 21:42:00,
2013-01-24 13:52:00,52.0,50.0,-100.00,ENE,70,4.0,7.0,93,-99.99,,,-99.99,,2013-01-24 21:52:00,
2013-01-24 14:02:00,52.0,50.0,-100.00,East,83,4.0,6.0,93,-99.99,,,-99.99,,2013-01-24 22:02:00,
2013-01-24 14:12:00,52.0,50.0,-100.00,ENE,75,5.0,8.0,92,-99.99,,,-99.99,,2013-01-24 22:12:00,
2013-01-24 14:22:00,51.0,49.0,-100.00,ENE,61,5.0,8.0,92,-99.99,,,-99.99,,2013-01-24 22:22:00,
2013-01-24 14:32:00,51.0,48.0,-100.00,East,81,5.0,7.0,91,-99.99,,,-99.99,,2013-01-24 22:32:00,
2013-01-24 14:42:00,52.0,49.0,-100.00,East,88,5.0,7.0,89,-99.99,,,-99.99,,2013-01-24 22:42:00,
2013-01-24 14:52:00,52.0,49.0,-100.00,East,93,6.0,9.0,88,-99.99,,,-99.99,,2013-01-24 22:52:00,
2013-01-24 15:01:00,52.0,48.0,-100.00,East,92,6.0,9.0,87,-99.99,,,-99.99,,2013-01-24 23:01:00,
2013-01-24 15:11:00,52.0,48.0,-100.00,East,82,7.0,10.0,85,-99.99,,,-99.99,,2013-01-24 23:11:00,
2013-01-24 15:21:00,52.0,48.0,-100.00,East,85,5.0,8.0,85,-99.99,,,-99.99,,2013-01-24 23:21:00,
2013-01-24 15:32:00,53.0,47.0,-100.00,East,90,6.0,9.0,81,-99.99,,,-99.99,,2013-01-24 23:32:00,
2013-01-24 15:42:00,53.0,46.0,-100.00,East,88,5.0,8.0,77,-99.99,,,-99.99,,2013-01-24 23:42:00,
2013-01-24 15:52:00,53.0,45.0,-100.00,East,83,6.0,9.0,75,-99.99,,,-99.99,,2013-01-24 23:52:00,
2013-01-24 16:01:00,53.0,44.0,-100.00,East,89,7.0,10.0,72,-99.99,,,-99.99,,2013-01-25 00:01:00,
2013-01-24 16:12:00,53.0,43.0,-100.00,East,85,6.0,10.0,70,-99.99,,,-99.99,,2013-01-25 00:12:00,
2013-01-24 16:21:00,53.0,42.0,-100.00,East,93,5.0,8.0,67,-99.99,,,-99.99,,2013-01-25 00:21:00,
2013-01-24 16:32:00,53.0,42.0,-100.00,East,93,5.0,8.0,67,-99.99,,,-99.99,,2013-01-25 00:32:00,
2013-01-24 16:41:00,53.0,42.0,-100.00,East,100,5.0,7.0,67,-99.99,,,-99.99,,2013-01-25 00:41:00,
2013-01-24 16:51:00,53.0,42.0,-100.00,East,99,5.0,7.0,66,-99.99,,,-99.99,,2013-01-25 00:51:00,
2013-01-24 17:01:00,52.0,41.0,-100.00,East,92,5.0,7.0,66,-99.99,,,-99.99,,2013-01-25 01:01:00,
2013-01-24 17:11:00,51.0,40.0,-100.00,East,89,4.0,7.0,67,-99.99,,,-99.99,,2013-01-25 01:11:00,
2013-01-24 17:21:00,51.0,41.0,-100.00,East,90,4.0,6.0,69,-99.99,,,-99.99,,2013-01-25 01:21:00,
2013-01-24 17:31:00,51.0,42.0,-100.00,East,100,5.0,8.0,70,-99.99,,,-99.99,,2013-01-25 01:31:00,
2013-01-24 17:41:00,50.0,41.0,-100.00,ESE,113,5.0,8.0,71,-99.99,,,-99.99,,2013-01-25 01:41:00,
2013-01-24 17:51:00,50.0,41.0,-100.00,ESE,108,6.0,9.0,71,-99.99,,,-99.99,,2013-01-25 01:51:00,
2013-01-24 18:01:00,50.0,41.0,-100.00,ESE,102,6.0,11.0,70,-99.99,,,-99.99,,2013-01-25 02:01:00,
2013-01-24 18:11:00,50.0,41.0,-100.00,ESE,102,6.0,11.0,70,-99.99,,,-99.99,,2013-01-25 02:11:00,
2013-01-24 18:22:00,49.0,40.0,-100.00,ESE,106,7.0,11.0,70,-99.99,,,-99.99,,2013-01-25 02:22:00,
2013-01-24 18:32:00,49.0,40.0,-100.00,East,101,6.0,9.0,71,-99.99,,,-99.99,,2013-01-25 02:32:00,
2013-01-24 18:42:00,49.0,40.0,-100.00,East,99,6.0,10.0,70,-99.99,,,-99.99,,2013-01-25 02:42:00,
2013-01-24 18:52:00,49.0,40.0,-100.00,ESE,108,7.0,11.0,70,-99.99,,,-99.99,,2013-01-25 02:52:00,
2013-01-24 19:01:00,49.0,40.0,-100.00,ESE,104,6.0,11.0,70,-99.99,,,-99.99,,2013-01-25 03:01:00,
2013-01-24 19:12:00,49.0,40.0,-100.00,ESE,104,7.0,10.0,70,-99.99,,,-99.99,,2013-01-25 03:12:00,
2013-01-24 19:21:00,49.0,40.0,-100.00,ESE,104,7.0,10.0,70,-99.99,,,-99.99,,2013-01-25 03:21:00,
2013-01-24 19:32:00,49.0,39.0,-100.00,East,95,7.0,12.0,69,-99.99,,,-99.99,,2013-01-25 03:32:00,
2013-01-24 19:41:00,49.0,39.0,-100.00,East,98,7.0,11.0,69,-99.99,,,-99.99,,2013-01-25 03:41:00,
2013-01-24 19:52:00,49.0,39.0,-100.00,ESE,105,6.0,10.0,69,-99.99,,,-99.99,,2013-01-25 03:52:00,
2013-01-24 20:01:00,49.0,39.0,-100.00,East,93,7.0,10.0,68,-99.99,,,-99.99,,2013-01-25 04:01:00,
2013-01-24 20:11:00,49.0,39.0,-100.00,East,96,7.0,13.0,68,-99.99,,,-99.99,,2013-01-25 04:11:00,
2013-01-24 20:22:00,49.0,39.0,-100.00,East,97,7.0,11.0,68,-99.99,,,-99.99,,2013-01-25 04:22:00,
2013-01-24 20:31:00,49.0,39.0,-100.00,East,95,7.0,11.0,69,-99.99,,,-99.99,,2013-01-25 04:31:00,
2013-01-24 20:41:00,49.0,40.0,-100.00,East,101,7.0,11.0,71,-99.99,,,-99.99,,2013-01-25 04:41:00,
2013-01-24 20:51:00,48.0,40.0,-100.00,ESE,108,6.0,10.0,75,-99.99,,,-99.99,,2013-01-25 04:51:00,
2013-01-24 21:03:00,48.0,42.0,-100.00,ESE,105,6.0,9.0,79,-99.99,,,-99.99,,2013-01-25 05:03:00,
2013-01-24 21:12:00,47.0,41.0,-100.00,ESE,104,5.0,7.0,80,-99.99,,,-99.99,,2013-01-25 05:12:00,
2013-01-24 21:22:00,47.0,41.0,-100.00,ESE,106,5.0,9.0,78,-99.99,,,-99.99,,2013-01-25 05:22:00,
2013-01-24 21:32:00,48.0,41.0,-100.00,ESE,107,5.0,8.0,76,-99.99,,,-99.99,,2013-01-25 05:32:00,
2013-01-24 21:42:00,48.0,40.0,-100.00,ESE,108,7.0,9.0,74,-99.99,,,-99.99,,2013-01-25 05:42:00,
2013-01-24 21:52:00,48.0,40.0,-100.00,East,99,6.0,8.0,74,-99.99,,,-99.99,,2013-01-25 05:52:00,
2013-01-24 22:01:00,48.0,40.0,-100.00,East,99,6.0,9.0,73,-99.99,,,-99.99,,2013-01-25 06:01:00,
2013-01-24 22:11:00,48.0,40.0,-100.00,East,100,6.0,11.0,73,-99.99,,,-99.99,,2013-01-25 06:11:00,
2013-01-24 22:21:00,48.0,40.0,-100.00,ESE,103,6.0,10.0,74,-99.99,,,-99.99,,2013-01-25 06:21:00,
2013-01-24 22:31:00,48.0,40.0,-100.00,East,98,7.0,10.0,73,-99.99,,,-99.99,,2013-01-25 06:31:00,
2013-01-24 22:41:00,48.0,40.0,-100.00,East,91,5.0,8.0,73,-99.99,,,-99.99,,2013-01-25 06:41:00,
2013-01-24 22:51:00,48.0,40.0,-100.00,East,79,5.0,8.0,73,-99.99,,,-99.99,,2013-01-25 06:51:00,
2013-01-24 23:01:00,48.0,40.0,-100.00,East,93,6.0,10.0,73,-99.99,,,-99.99,,2013-01-25 07:01:00,
2013-01-24 23:11:00,48.0,40.0,-100.00,East,93,6.0,10.0,74,-99.99,,,-99.99,,2013-01-25 07:11:00,
2013-01-24 23:21:00,47.0,41.0,-100.00,East,84,4.0,7.0,80,-99.99,,,-99.99,,2013-01-25 07:21:00,
2013-01-24 23:31:00,47.0,41.0,-100.00,East,93,5.0,8.0,81,-99.99,,,-99.99,,2013-01-25 07:31:00,
2013-01-24 23:41:00,47.0,41.0,-100.00,East,93,6.0,10.0,81,-99.99,,,-99.99,,2013-01-25 07:41:00,
2013-01-24 23:51:00,48.0,42.0,-100.00,East,93,6.0,10.0,81,-99.99,,,-99.99,,2013-01-25 07:51:00,